createdAt,value
2019-06-01T00:02:15.583Z,45.19
2019-06-01T00:04:49.699Z,45.18
2019-06-01T00:07:26.639Z,45.86
2019-06-01T00:10:00.262Z,46.31
2019-06-01T00:12:37.121Z,46.88
2019-06-01T00:15:19.348Z,46.52
2019-06-01T00:17:53.704Z,46.24
2019-06-01T00:20:31.464Z,46.85
2019-06-01T00:23:20.156Z,45.82
2019-06-01T00:25:54.582Z,46.32
2019-06-01T00:28:27.503Z,45.92
2019-06-01T00:31:01.558Z,46.50
2019-06-01T00:33:32.904Z,46.55
2019-06-01T00:36:05.130Z,46.86
2019-06-01T00:38:41.760Z,46.74
2019-06-01T00:41:15.002Z,46.93
2019-06-01T00:43:48.442Z,47.07
2019-06-01T00:46:23.642Z,47.45
2019-06-01T00:48:55.772Z,47.89
2019-06-01T00:51:27.200Z,47.64
2019-06-01T00:53:58.328Z,47.15
2019-06-01T00:56:36.918Z,47.26
2019-06-01T00:59:08.412Z,46.75
2019-06-01T01:01:39.476Z,46.90
2019-06-01T01:04:09.999Z,47.27
2019-06-01T01:06:44.481Z,46.92
2019-06-01T01:09:17.504Z,47.94
2019-06-01T01:11:51.221Z,47.55
2019-06-01T01:14:24.844Z,47.44
2019-06-01T01:16:58.927Z,48.51
2019-06-01T01:19:32.871Z,47.75
2019-06-01T01:22:06.985Z,48.28
2019-06-01T01:24:43.582Z,49.53
2019-06-01T01:27:16.011Z,49.60
2019-06-01T01:29:55.021Z,48.47
2019-06-01T01:32:33.094Z,48.38
2019-06-01T01:35:12.508Z,48.97
2019-06-01T01:37:45.467Z,49.46
2019-06-01T01:40:23.379Z,49.17
2019-06-01T01:42:56.622Z,47.96
2019-06-01T01:45:28.937Z,48.83
2019-06-01T01:48:01.417Z,48.50
2019-06-01T01:50:32.250Z,48.62
2019-06-01T01:53:03.419Z,49.08
2019-06-01T01:55:35.673Z,48.25
2019-06-01T01:58:07.844Z,48.72
2019-06-01T02:00:42.261Z,48.17
2019-06-01T02:03:13.403Z,48.50
2019-06-01T02:05:46.996Z,48.62
2019-06-01T02:08:22.144Z,48.59
2019-06-01T02:10:53.553Z,47.89
2019-06-01T02:13:32.191Z,49.04
2019-06-01T02:16:07.460Z,49.42
2019-06-01T02:18:38.045Z,50.17
2019-06-01T02:21:09.625Z,49.44
2019-06-01T02:23:40.522Z,50.67
2019-06-01T02:26:13.896Z,49.81
2019-06-01T02:28:47.994Z,49.93
2019-06-01T02:31:37.467Z,50.41
2019-06-01T02:33:58.546Z,49.79
2019-06-01T02:36:32.743Z,50.58
2019-06-01T02:39:10.133Z,49.98
2019-06-01T02:41:51.766Z,50.79
2019-06-01T02:44:28.682Z,50.21
2019-06-01T02:47:06.357Z,50.22
2019-06-01T02:49:41.152Z,50.38
2019-06-01T02:52:13.735Z,51.83
2019-06-01T02:54:47.678Z,51.29
2019-06-01T02:57:24.069Z,50.46
2019-06-01T02:59:56.294Z,50.85
2019-06-01T03:02:30.619Z,50.72
2019-06-01T03:05:10.812Z,51.03
2019-06-01T03:07:45.854Z,51.25
2019-06-01T03:10:40.744Z,51.58
2019-06-01T03:13:16.060Z,51.86
2019-06-01T03:15:54.497Z,51.77
2019-06-01T03:18:32.789Z,51.92
2019-06-01T03:21:06.353Z,52.17
2019-06-01T03:23:40.510Z,52.91
2019-06-01T03:26:12.661Z,51.74
2019-06-01T03:28:45.589Z,51.81
2019-06-01T03:31:17.261Z,52.06
2019-06-01T03:33:50.466Z,52.04
2019-06-01T03:36:25.908Z,52.51
2019-06-01T03:39:02.247Z,52.10
2019-06-01T03:41:38.614Z,52.50
2019-06-01T03:44:13.136Z,51.72
2019-06-01T03:46:45.405Z,52.28
2019-06-01T03:49:17.785Z,51.94
2019-06-01T03:52:00.542Z,52.75
2019-06-01T03:54:48.585Z,51.95
2019-06-01T03:58:05.015Z,51.95
2019-06-01T04:00:37.880Z,51.58
2019-06-01T04:03:09.282Z,52.52
2019-06-01T04:05:43.545Z,52.75
2019-06-01T04:08:14.578Z,52.49
2019-06-01T04:10:46.137Z,52.49
2019-06-01T04:13:16.589Z,51.93
2019-06-01T04:15:55.075Z,52.22
2019-06-01T04:18:34.959Z,52.31
2019-06-01T04:21:16.086Z,52.27
2019-06-01T04:23:49.376Z,52.25
2019-06-01T04:26:31.571Z,52.25
2019-06-01T04:29:08.312Z,52.21
2019-06-01T04:31:41.159Z,52.47
2019-06-01T04:34:13.103Z,52.05
2019-06-01T04:36:43.634Z,52.76
2019-06-01T04:39:18.688Z,53.36
2019-06-01T04:41:52.821Z,53.12
2019-06-01T04:44:31.084Z,52.65
2019-06-01T04:47:06.677Z,52.46
2019-06-01T04:49:43.268Z,52.37
2019-06-01T04:52:17.602Z,53.11
2019-06-01T04:54:57.644Z,52.70
2019-06-01T04:57:51.894Z,52.70
2019-06-01T05:00:45.052Z,52.56
2019-06-01T05:03:26.347Z,51.34
2019-06-01T05:06:02.432Z,51.34
2019-06-01T05:08:39.064Z,52.01
2019-06-01T05:11:11.861Z,52.22
2019-06-01T05:13:43.321Z,51.10
2019-06-01T05:16:14.949Z,51.58
2019-06-01T05:18:49.448Z,51.58
2019-06-01T05:21:23.099Z,51.67
2019-06-01T05:23:55.695Z,51.14
2019-06-01T05:26:27.817Z,51.24
2019-06-01T05:29:07.717Z,51.37
2019-06-01T05:31:49.088Z,51.19
2019-06-01T05:34:21.021Z,51.67
2019-06-01T05:36:55.270Z,51.70
2019-06-01T05:39:39.423Z,50.19
2019-06-01T05:42:14.669Z,50.92
2019-06-01T05:45:05.948Z,50.67
2019-06-01T05:47:43.873Z,50.16
2019-06-01T05:50:18.462Z,50.40
2019-06-01T05:53:00.717Z,50.50
2019-06-01T05:55:36.304Z,50.89
2019-06-01T05:58:15.232Z,50.67
2019-06-01T06:00:47.854Z,50.52
2019-06-01T06:03:39.313Z,49.40
2019-06-01T06:05:55.274Z,50.31
2019-06-01T06:08:25.569Z,50.03
2019-06-01T06:10:56.973Z,50.15
2019-06-01T06:13:27.705Z,49.89
2019-06-01T06:15:57.941Z,50.69
2019-06-01T06:18:39.598Z,49.80
2019-06-01T06:21:09.860Z,49.93
2019-06-01T06:23:46.045Z,49.65
2019-06-01T06:26:22.597Z,49.19
2019-06-01T06:28:54.594Z,49.01
2019-06-01T06:31:26.815Z,48.86
2019-06-01T06:33:58.385Z,48.29
2019-06-01T06:36:32.901Z,48.67
2019-06-01T06:39:04.794Z,48.98
2019-06-01T06:41:43.773Z,49.17
2019-06-01T06:44:16.397Z,48.37
2019-06-01T06:46:55.082Z,47.87
2019-06-01T06:49:31.148Z,48.82
2019-06-01T06:52:02.126Z,47.47
2019-06-01T06:54:41.912Z,47.37
2019-06-01T06:57:15.947Z,47.34
2019-06-01T06:59:55.054Z,47.19
2019-06-01T07:02:36.659Z,47.94
2019-06-01T07:05:19.219Z,47.79
2019-06-01T07:07:53.100Z,47.15
2019-06-01T07:10:24.241Z,47.68
2019-06-01T07:12:58.397Z,47.52
2019-06-01T07:15:47.628Z,46.46
2019-06-01T07:18:19.421Z,45.96
2019-06-01T07:20:51.268Z,45.79
2019-06-01T07:23:23.734Z,45.56
2019-06-01T07:25:57.347Z,44.59
2019-06-01T07:28:28.631Z,44.57
2019-06-01T07:31:00.885Z,44.50
2019-06-01T07:33:35.101Z,44.36
2019-06-01T07:36:06.510Z,43.33
2019-06-01T07:38:39.716Z,44.24
2019-06-01T07:41:12.870Z,45.08
2019-06-01T07:43:51.540Z,44.76
2019-06-01T07:46:22.779Z,44.62
2019-06-01T07:48:53.116Z,44.94
2019-06-01T07:51:25.431Z,44.28
2019-06-01T07:53:56.508Z,43.65
2019-06-01T07:56:28.723Z,43.77
2019-06-01T07:59:01.407Z,42.18
2019-06-01T08:01:33.798Z,42.58
2019-06-01T08:04:04.919Z,42.07
2019-06-01T08:06:35.658Z,41.49
2019-06-01T08:09:08.919Z,41.58
2019-06-01T08:11:41.232Z,40.69
2019-06-01T08:14:12.623Z,40.30
2019-06-01T08:16:46.123Z,40.39
2019-06-01T08:19:18.449Z,39.84
2019-06-01T08:21:50.792Z,39.12
2019-06-01T08:24:24.213Z,39.05
2019-06-01T08:26:59.322Z,39.67
2019-06-01T08:29:32.949Z,39.92
2019-06-01T08:32:06.268Z,40.67
2019-06-01T08:34:37.037Z,39.58
2019-06-01T08:37:09.373Z,40.54
2019-06-01T08:39:41.158Z,40.35
2019-06-01T08:42:14.222Z,38.90
2019-06-01T08:44:47.411Z,39.02
2019-06-01T08:47:19.608Z,38.24
2019-06-01T08:49:50.052Z,38.80
2019-06-01T08:52:23.891Z,38.70
2019-06-01T08:54:54.273Z,39.30
2019-06-01T08:57:28.832Z,39.09
2019-06-01T08:59:59.991Z,38.07
2019-06-01T09:02:35.365Z,37.89
2019-06-01T09:05:23.312Z,37.46
2019-06-01T09:07:41.186Z,37.13
2019-06-01T09:10:13.971Z,36.72
2019-06-01T09:12:44.733Z,35.20
2019-06-01T09:15:17.976Z,35.69
2019-06-01T09:17:51.703Z,36.25
2019-06-01T09:20:25.402Z,33.95
2019-06-01T09:22:58.726Z,35.11
2019-06-01T09:25:29.682Z,35.39
2019-06-01T09:27:59.971Z,35.28
2019-06-01T09:30:32.114Z,34.89
2019-06-01T09:33:10.568Z,34.78
2019-06-01T09:35:54.353Z,34.74
2019-06-01T09:38:13.828Z,34.25
2019-06-01T09:40:45.009Z,33.96
2019-06-01T09:43:17.307Z,33.18
2019-06-01T09:45:53.277Z,33.99
2019-06-01T09:48:24.407Z,34.38
2019-06-01T09:50:56.343Z,32.79
2019-06-01T09:53:28.798Z,32.68
2019-06-01T09:55:59.709Z,32.44
2019-06-01T09:58:30.234Z,32.22
2019-06-01T10:01:01.862Z,31.48
2019-06-01T10:03:36.486Z,31.59
2019-06-01T10:06:07.726Z,30.33
2019-06-01T10:08:38.239Z,30.12
2019-06-01T10:11:08.504Z,30.77
2019-06-01T10:13:39.018Z,31.56
2019-06-01T10:16:12.381Z,31.10
2019-06-01T10:18:47.878Z,30.83
2019-06-01T10:21:21.795Z,30.55
2019-06-01T10:23:53.249Z,29.27
2019-06-01T10:26:27.502Z,29.86
2019-06-01T10:28:57.752Z,30.00
2019-06-01T10:31:28.230Z,30.50
2019-06-01T10:33:58.528Z,29.74
2019-06-01T10:36:28.865Z,29.45
2019-06-01T10:38:59.785Z,28.07
2019-06-01T10:41:31.228Z,26.79
2019-06-01T10:44:01.550Z,28.52
2019-06-01T10:46:32.002Z,28.01
2019-06-01T10:49:02.308Z,28.34
2019-06-01T10:51:34.073Z,27.70
2019-06-01T10:54:04.444Z,28.12
2019-06-01T10:56:34.735Z,27.49
2019-06-01T10:59:06.736Z,27.32
2019-06-01T11:01:37.873Z,27.66
2019-06-01T11:04:10.272Z,27.57
2019-06-01T11:06:46.046Z,27.72
2019-06-01T11:09:15.604Z,26.71
2019-06-01T11:11:53.825Z,28.00
2019-06-01T11:14:24.783Z,27.67
2019-06-01T11:16:59.997Z,27.30
2019-06-01T11:19:31.546Z,25.51
2019-06-01T11:22:02.968Z,24.72
2019-06-01T11:24:39.514Z,24.50
2019-06-01T11:27:16.239Z,24.32
2019-06-01T11:29:57.712Z,26.26
2019-06-01T11:32:29.742Z,28.04
2019-06-01T11:35:13.833Z,26.58
2019-06-01T11:37:45.137Z,26.15
2019-06-01T11:40:15.359Z,24.52
2019-06-01T11:42:46.881Z,25.43
2019-06-01T11:45:18.394Z,24.82
2019-06-01T11:47:51.897Z,24.64
2019-06-01T11:50:23.460Z,24.60
2019-06-01T11:52:55.936Z,25.96
2019-06-01T11:55:28.051Z,25.90
2019-06-01T11:57:58.740Z,24.07
2019-06-01T12:00:29.312Z,23.54
2019-06-01T12:03:00.092Z,25.06
2019-06-01T12:05:33.187Z,24.37
2019-06-01T12:08:07.075Z,25.49
2019-06-01T12:10:43.278Z,23.32
2019-06-01T12:13:16.366Z,22.98
2019-06-01T12:15:49.468Z,23.32
2019-06-01T12:18:21.842Z,22.82
2019-06-01T12:20:54.336Z,21.24
2019-06-01T12:23:27.568Z,22.06
2019-06-01T12:25:59.977Z,22.09
2019-06-01T12:28:37.590Z,22.98
2019-06-01T12:31:09.746Z,21.23
2019-06-01T12:33:41.925Z,23.04
2019-06-01T12:36:12.240Z,23.07
2019-06-01T12:38:52.956Z,23.22
2019-06-01T12:41:23.758Z,22.65
2019-06-01T12:44:14.721Z,21.77
2019-06-01T12:46:49.012Z,22.53
2019-06-01T12:49:21.368Z,20.68
2019-06-01T12:51:53.004Z,22.02
2019-06-01T12:54:24.710Z,21.89
2019-06-01T12:56:55.313Z,21.73
2019-06-01T12:59:25.565Z,21.22
2019-06-01T13:01:57.823Z,20.44
2019-06-01T13:04:28.437Z,21.48
2019-06-01T13:07:01.576Z,21.58
2019-06-01T13:09:33.291Z,19.72
2019-06-01T13:12:03.610Z,21.88
2019-06-01T13:14:33.961Z,20.00
2019-06-01T13:17:07.792Z,23.04
2019-06-01T13:19:36.794Z,21.22
2019-06-01T13:22:10.108Z,20.91
2019-06-01T13:24:43.719Z,21.17
2019-06-01T13:27:14.509Z,20.39
2019-06-01T13:29:45.818Z,19.39
2019-06-01T13:32:16.131Z,19.81
2019-06-01T13:34:47.155Z,19.12
2019-06-01T13:37:19.545Z,20.33
2019-06-01T13:39:55.780Z,19.40
2019-06-01T13:42:22.992Z,20.66
2019-06-01T13:44:53.656Z,20.81
2019-06-01T13:47:24.428Z,21.10
2019-06-01T13:49:54.734Z,20.73
2019-06-01T13:52:26.940Z,20.98
2019-06-01T13:54:59.464Z,21.05
2019-06-01T13:57:29.745Z,22.07
2019-06-01T14:00:00.528Z,20.86
2019-06-01T14:02:31.700Z,21.15
2019-06-01T14:05:02.073Z,21.85
2019-06-01T14:07:32.269Z,23.88
2019-06-01T14:10:05.896Z,21.99
2019-06-01T14:12:36.123Z,20.76
2019-06-01T14:15:07.218Z,19.58
2019-06-01T14:17:37.591Z,21.16
2019-06-01T14:20:08.471Z,19.37
2019-06-01T14:22:41.236Z,21.35
2019-06-01T14:25:14.958Z,20.12
2019-06-01T14:27:46.098Z,19.55
2019-06-01T14:30:17.791Z,20.48
2019-06-01T14:32:48.835Z,21.53
2019-06-01T14:35:19.544Z,20.04
2019-06-01T14:37:51.336Z,18.37
2019-06-01T14:40:23.624Z,18.28
2019-06-01T14:42:53.924Z,20.07
2019-06-01T14:45:26.234Z,20.66
2019-06-01T14:47:58.610Z,19.91
2019-06-01T14:50:29.101Z,19.00
2019-06-01T14:53:05.165Z,17.78
2019-06-01T14:55:36.983Z,18.24
2019-06-01T14:58:07.332Z,17.99
2019-06-01T15:00:37.675Z,17.67
2019-06-01T15:03:08.490Z,17.00
2019-06-01T15:05:39.236Z,17.30
2019-06-01T15:08:10.683Z,17.29
2019-06-01T15:10:41.535Z,17.43
2019-06-01T15:13:12.480Z,17.20
2019-06-01T15:15:43.332Z,17.17
2019-06-01T15:18:14.487Z,16.99
2019-06-01T15:20:44.792Z,18.34
2019-06-01T15:23:16.359Z,17.79
2019-06-01T15:25:47.299Z,17.62
2019-06-01T15:28:17.882Z,18.00
2019-06-01T15:30:50.732Z,18.00
2019-06-01T15:33:21.250Z,18.77
2019-06-01T15:35:53.494Z,19.46
2019-06-01T15:38:26.529Z,20.25
2019-06-01T15:40:57.962Z,21.02
2019-06-01T15:43:32.786Z,21.24
2019-06-01T15:46:10.486Z,22.01
2019-06-01T15:48:42.706Z,22.23
2019-06-01T15:51:12.960Z,23.27
2019-06-01T15:53:44.029Z,23.16
2019-06-01T15:56:14.479Z,23.67
2019-06-01T15:58:52.835Z,23.68
2019-06-01T16:01:18.101Z,24.14
2019-06-01T16:03:49.428Z,24.41
2019-06-01T16:06:23.846Z,24.47
2019-06-01T16:08:57.293Z,24.76
2019-06-01T16:11:33.349Z,25.07
2019-06-01T16:14:07.258Z,25.35
2019-06-01T16:16:41.874Z,26.50
2019-06-01T16:19:19.189Z,25.40
2019-06-01T16:22:03.395Z,25.80
2019-06-01T16:24:49.654Z,26.80
2019-06-01T16:27:34.351Z,26.85
2019-06-01T16:30:09.313Z,27.46
2019-06-01T16:32:41.623Z,27.62
2019-06-01T16:35:11.953Z,27.62
2019-06-01T16:37:45.250Z,27.55
2019-06-01T16:40:18.596Z,27.33
2019-06-01T16:42:51.782Z,27.67
2019-06-01T16:45:23.641Z,27.43
2019-06-01T16:47:55.474Z,27.72
2019-06-01T16:50:26.634Z,28.00
2019-06-01T16:53:00.183Z,27.95
2019-06-01T16:55:32.275Z,28.10
2019-06-01T16:58:06.589Z,26.75
2019-06-01T17:00:39.405Z,28.49
2019-06-01T17:03:11.563Z,28.48
2019-06-01T17:05:48.388Z,28.77
2019-06-01T17:08:20.475Z,28.84
2019-06-01T17:10:50.966Z,29.22
2019-06-01T17:13:25.594Z,28.79
2019-06-01T17:16:01.022Z,29.13
2019-06-01T17:18:38.827Z,29.20
2019-06-01T17:21:11.762Z,29.19
2019-06-01T17:23:45.906Z,28.96
2019-06-01T17:26:21.914Z,29.02
2019-06-01T17:28:54.244Z,29.33
2019-06-01T17:31:27.535Z,28.92
2019-06-01T17:33:58.478Z,29.20
2019-06-01T17:36:29.226Z,29.42
2019-06-01T17:38:59.972Z,29.59
2019-06-01T17:41:30.214Z,29.54
2019-06-01T17:44:02.640Z,29.49
2019-06-01T17:46:52.450Z,29.86
2019-06-01T17:49:22.995Z,29.80
2019-06-01T17:52:03.571Z,29.93
2019-06-01T17:54:36.434Z,29.84
2019-06-01T17:57:09.250Z,29.78
2019-06-01T17:59:41.327Z,29.88
2019-06-01T18:02:13.659Z,29.82
2019-06-01T18:04:47.834Z,29.88
2019-06-01T18:07:19.568Z,29.96
2019-06-01T18:09:50.584Z,30.03
2019-06-01T18:12:23.974Z,30.34
2019-06-01T18:14:55.708Z,30.14
2019-06-01T18:17:28.262Z,30.22
2019-06-01T18:19:59.192Z,30.59
2019-06-01T18:22:35.661Z,30.38
2019-06-01T18:25:13.759Z,30.55
2019-06-01T18:27:48.141Z,30.53
2019-06-01T18:30:31.131Z,30.58
2019-06-01T18:33:03.076Z,30.90
2019-06-01T18:35:34.266Z,30.66
2019-06-01T18:38:07.790Z,30.82
2019-06-01T18:40:38.158Z,30.87
2019-06-01T18:43:12.255Z,30.78
2019-06-01T18:45:45.168Z,31.27
2019-06-01T18:48:16.523Z,31.36
2019-06-01T18:50:46.973Z,31.30
2019-06-01T18:53:22.974Z,31.45
2019-06-01T18:55:56.399Z,31.59
2019-06-01T18:58:28.637Z,32.02
2019-06-01T19:01:00.509Z,32.01
2019-06-01T19:03:32.421Z,32.30
2019-06-01T19:06:11.685Z,31.73
2019-06-01T19:08:48.205Z,32.44
2019-06-01T19:11:35.718Z,32.33
2019-06-01T19:14:06.009Z,32.56
2019-06-01T19:16:36.708Z,32.70
2019-06-01T19:19:08.605Z,32.64
2019-06-01T19:21:39.067Z,33.36
2019-06-01T19:24:20.055Z,33.37
2019-06-01T19:26:51.725Z,33.17
2019-06-01T19:29:29.110Z,32.66
2019-06-01T19:32:01.973Z,32.96
2019-06-01T19:34:36.293Z,33.06
2019-06-01T19:37:15.253Z,33.38
2019-06-01T19:39:51.052Z,33.44
2019-06-01T19:42:26.996Z,33.52
2019-06-01T19:45:28.855Z,33.80
2019-06-01T19:48:23.205Z,33.71
2019-06-01T19:50:59.040Z,33.88
2019-06-01T19:53:36.451Z,34.02
2019-06-01T19:56:10.817Z,34.13
2019-06-01T19:58:51.603Z,34.11
2019-06-01T20:01:26.618Z,34.50
2019-06-01T20:04:00.212Z,34.50
2019-06-01T20:09:37.925Z,34.77
2019-06-01T20:16:16.740Z,34.96
2019-06-01T20:19:02.053Z,35.48
2019-06-01T20:21:35.607Z,35.96
2019-06-01T20:24:17.468Z,36.21
2019-06-01T20:26:52.569Z,35.77
2019-06-01T20:29:38.968Z,35.78
2019-06-01T20:32:15.919Z,35.96
2019-06-01T20:34:49.041Z,36.13
2019-06-01T20:37:46.598Z,36.11
2019-06-01T20:40:25.824Z,35.97
2019-06-01T20:43:01.488Z,36.23
2019-06-01T20:45:37.562Z,36.20
2019-06-01T20:48:10.942Z,35.82
2019-06-01T20:50:45.036Z,36.52
2019-06-01T20:53:16.874Z,36.52
2019-06-01T20:55:50.318Z,36.71
2019-06-01T20:58:24.799Z,36.99
2019-06-01T21:01:05.522Z,37.54
2019-06-01T21:03:42.694Z,37.13
2019-06-01T21:06:18.208Z,37.22
2019-06-01T21:08:52.985Z,37.93
2019-06-01T21:11:27.384Z,37.91
2019-06-01T21:13:58.915Z,37.58
2019-06-01T21:16:44.361Z,37.89
2019-06-01T21:19:18.173Z,38.20
2019-06-01T21:21:52.649Z,38.07
2019-06-01T21:24:46.350Z,38.26
2019-06-01T21:27:30.930Z,38.35
2019-06-01T21:30:12.822Z,38.22
2019-06-01T21:32:48.641Z,38.23
2019-06-01T21:35:23.572Z,38.70
2019-06-01T21:37:57.574Z,38.43
2019-06-01T21:40:27.901Z,38.56
2019-06-01T21:43:22.979Z,38.39
2019-06-01T21:45:41.337Z,38.58
2019-06-01T21:48:19.960Z,38.95
2019-06-01T21:50:59.998Z,38.93
2019-06-01T21:53:34.864Z,38.81
2019-06-01T21:56:07.577Z,39.35
2019-06-01T21:58:43.172Z,39.05
2019-06-01T22:01:24.902Z,39.22
2019-06-01T22:04:02.821Z,39.59
2019-06-01T22:06:35.650Z,39.53
2019-06-01T22:09:28.735Z,39.60
2019-06-01T22:12:03.565Z,39.37
2019-06-01T22:14:55.400Z,39.36
2019-06-01T22:17:29.920Z,39.83
2019-06-01T22:20:04.100Z,39.50
2019-06-01T22:22:46.854Z,39.81
2019-06-01T22:25:24.480Z,39.61
2019-06-01T22:27:57.829Z,40.05
2019-06-01T22:30:31.867Z,40.31
2019-06-01T22:33:09.230Z,40.22
2019-06-01T22:35:41.422Z,40.41
2019-06-01T22:38:16.168Z,40.65
2019-06-01T22:40:48.017Z,40.62
2019-06-01T22:43:41.242Z,42.49
2019-06-01T22:46:04.789Z,42.39
2019-06-01T22:48:39.244Z,43.67
2019-06-01T22:51:12.309Z,43.89
2019-06-01T22:53:57.739Z,44.41
2019-06-01T22:56:34.399Z,44.36
2019-06-01T22:59:13.197Z,43.81
2019-06-01T23:02:11.319Z,44.16
2019-06-01T23:04:52.192Z,43.90
2019-06-01T23:07:25.124Z,43.07
2019-06-01T23:09:59.040Z,43.09
2019-06-01T23:12:55.810Z,42.82
2019-06-01T23:15:29.822Z,42.42
2019-06-01T23:18:00.565Z,42.56
2019-06-01T23:20:35.142Z,42.57
2019-06-01T23:23:06.129Z,43.00
2019-06-01T23:25:39.117Z,43.21
2019-06-01T23:28:12.521Z,43.60
2019-06-01T23:30:48.597Z,43.69
2019-06-01T23:33:38.746Z,43.61
2019-06-01T23:36:14.091Z,43.55
2019-06-01T23:38:47.587Z,43.73
2019-06-01T23:41:41.281Z,43.91
2019-06-01T23:44:13.558Z,44.26
2019-06-01T23:46:45.782Z,44.69
2019-06-01T23:49:23.109Z,44.67
2019-06-01T23:52:01.759Z,44.93
2019-06-01T23:54:33.935Z,44.88
2019-06-01T23:57:10.273Z,44.82
2019-06-01T23:59:55.196Z,44.84
